Time;durP1;ratioP1;P1;durP2;ratioP2;P2;SDS_P1;SDS_P2;PMS_P1;PMS_P2;Temp;Humidity;BMP_temperature;BMP_pressure;BME280_temperature;BME280_humidity;BME280_pressure;Samples;Min_cycle;Max_cycle;Signal;HPM_P1;HPM_P2
2022/04/13 00:00:47;;;;;;;4.82;1.70;;;16.70;85.50;;;;;;5083385;28;20455;-67
2022/04/13 00:03:12;;;;;;;4.90;1.52;;;16.60;86.50;;;;;;5085146;28;20483;-67
2022/04/13 00:05:38;;;;;;;6.40;1.70;;;16.30;87.30;;;;;;5066636;28;20024;-68
2022/04/13 00:08:07;;;;;;;5.18;1.80;;;16.20;87.70;;;;;;5081008;28;20039;-68
2022/04/13 00:10:37;;;;;;;4.15;1.35;;;16.00;89.00;;;;;;5081717;28;20056;-67
2022/04/13 00:13:03;;;;;;;6.70;1.90;;;16.00;89.20;;;;;;5079091;28;20021;-67
2022/04/13 00:15:28;;;;;;;5.15;1.85;;;15.90;89.20;;;;;;5078943;28;20030;-67
2022/04/13 00:17:54;;;;;;;4.78;1.70;;;15.70;90.40;;;;;;5082647;28;20095;-67
2022/04/13 00:20:22;;;;;;;5.00;1.65;;;15.70;92.60;;;;;;5064202;28;20102;-67
2022/04/13 00:22:48;;;;;;;5.60;2.00;;;15.70;95.60;;;;;;5078716;28;20021;-67
2022/04/13 00:25:13;;;;;;;5.30;1.83;;;15.60;96.10;;;;;;5084661;28;20048;-67
2022/04/13 00:27:39;;;;;;;4.78;1.75;;;15.60;97.40;;;;;;5076716;28;20049;-67
2022/04/13 00:30:06;;;;;;;4.63;1.77;;;15.20;91.80;;;;;;5079810;28;20027;-67
2022/04/13 00:32:33;;;;;;;5.55;1.73;;;15.10;92.60;;;;;;5082866;28;20012;-67
2022/04/13 00:35:02;;;;;;;5.85;1.80;;;15.10;92.60;;;;;;5074722;28;20033;-67
2022/04/13 00:37:28;;;;;;;5.70;1.67;;;14.80;93.20;;;;;;5077009;28;20103;-67
2022/04/13 00:39:54;;;;;;;4.43;1.50;;;14.80;93.70;;;;;;5069534;28;20506;-67
2022/04/13 00:42:20;;;;;;;5.75;1.73;;;14.60;95.00;;;;;;5076237;28;20091;-67
2022/04/13 00:44:46;;;;;;;4.72;1.80;;;14.50;95.30;;;;;;5072193;28;20098;-67
2022/04/13 00:47:12;;;;;;;6.22;2.20;;;14.40;96.00;;;;;;5068648;28;20032;-67
2022/04/13 00:49:38;;;;;;;5.50;1.90;;;14.40;96.40;;;;;;5078378;28;20016;-67
2022/04/13 00:52:06;;;;;;;5.60;1.60;;;14.40;96.60;;;;;;5076017;28;20036;-67
2022/04/13 00:54:33;;;;;;;6.18;1.90;;;14.50;96.30;;;;;;5076582;28;20115;-67
2022/04/13 00:57:01;;;;;;;6.15;2.15;;;14.90;95.50;;;;;;5081546;28;20029;-67
2022/04/13 00:59:26;;;;;;;6.10;1.73;;;15.00;95.40;;;;;;5067718;28;20031;-67
2022/04/13 01:01:57;;;;;;;3.67;1.55;;;15.20;95.50;;;;;;5074164;28;20020;-67
2022/04/13 01:04:22;;;;;;;;;;;15.40;96.40;;;;;;5086573;28;20115;-67
2022/04/13 01:06:48;;;;;;;3.85;1.50;;;15.20;96.50;;;;;;5078768;28;19990;-68
2022/04/13 01:09:15;;;;;;;5.53;1.92;;;15.00;97.20;;;;;;5068569;28;20151;-67
2022/04/13 01:11:40;;;;;;;6.50;1.98;;;14.90;98.40;;;;;;5082720;28;20028;-67
2022/04/13 01:14:08;;;;;;;6.32;1.90;;;14.60;99.10;;;;;;5080364;28;20031;-67
2022/04/13 01:16:37;;;;;;;6.50;1.80;;;14.30;99.90;;;;;;5080773;28;20103;-67
2022/04/13 01:19:06;;;;;;;4.13;1.60;;;;;;;;;;5078370;28;20057;-67
2022/04/13 01:21:45;;;;;;;5.97;1.83;;;13.80;99.00;;;;;;5078866;28;20021;-67
2022/04/13 01:24:12;;;;;;;3.80;1.60;;;13.70;99.90;;;;;;5075658;28;20021;-67
2022/04/13 01:26:37;;;;;;;4.47;1.58;;;13.70;99.90;;;;;;5079853;28;20523;-67
2022/04/13 01:29:05;;;;;;;4.18;1.70;;;13.70;99.90;;;;;;5078922;28;20033;-67
2022/04/13 01:31:31;;;;;;;11.73;1.77;;;13.80;99.90;;;;;;5081520;28;20029;-67
2022/04/13 01:33:59;;;;;;;5.05;1.83;;;14.00;99.90;;;;;;5070777;28;20048;-67
2022/04/13 01:36:25;;;;;;;3.83;1.50;;;14.30;99.90;;;;;;5071186;28;20107;-67
2022/04/13 01:38:51;;;;;;;4.75;1.80;;;14.40;99.90;;;;;;5062410;28;20431;-67
2022/04/13 01:41:16;;;;;;;5.88;1.90;;;14.40;99.50;;;;;;5080873;28;20056;-67
2022/04/13 01:43:42;;;;;;;6.88;1.85;;;14.40;99.50;;;;;;5063405;28;20426;-67
2022/04/13 01:46:07;;;;;;;5.20;1.75;;;14.40;99.70;;;;;;5077739;28;20021;-67
2022/04/13 01:48:33;;;;;;;5.90;1.70;;;14.30;99.90;;;;;;5078935;28;20029;-67
2022/04/13 01:50:59;;;;;;;4.82;1.65;;;14.20;99.90;;;;;;5080582;28;20383;-67
2022/04/13 01:53:28;;;;;;;5.57;2.22;;;14.00;99.90;;;;;;5081304;28;20024;-67
2022/04/13 01:55:57;;;;;;;5.38;1.85;;;13.90;99.90;;;;;;5080666;28;20107;-67
2022/04/13 01:58:23;;;;;;;4.43;1.70;;;13.80;99.90;;;;;;5078140;28;20040;-67
2022/04/13 02:00:53;;;;;;;4.60;1.70;;;13.80;99.90;;;;;;5077255;28;20029;-67
2022/04/13 02:03:20;;;;;;;7.25;1.73;;;13.90;99.90;;;;;;5063715;28;20031;-67
2022/04/13 02:05:46;;;;;;;4.88;1.90;;;14.20;99.90;;;;;;5076445;28;20020;-67
2022/04/13 02:08:12;;;;;;;5.82;1.80;;;14.30;99.90;;;;;;5083511;28;20032;-67
2022/04/13 02:10:37;;;;;;;5.22;2.00;;;14.50;99.90;;;;;;5079608;28;20090;-67
2022/04/13 02:13:03;;;;;;;4.93;1.73;;;14.60;99.90;;;;;;5080047;28;20041;-67
2022/04/13 02:15:29;;;;;;;6.80;1.90;;;14.60;99.70;;;;;;5079694;28;20099;-67
2022/04/13 02:17:54;;;;;;;4.82;1.80;;;14.80;99.30;;;;;;5060218;28;20028;-67
2022/04/13 02:20:20;;;;;;;6.15;2.13;;;14.90;99.20;;;;;;5078516;28;20820;-67
2022/04/13 02:22:46;;;;;;;4.95;1.75;;;14.90;99.10;;;;;;5080871;28;20095;-67
2022/04/13 02:25:12;;;;;;;6.13;2.38;;;14.90;99.10;;;;;;5086853;28;20019;-67
2022/04/13 02:27:38;;;;;;;6.50;2.15;;;15.10;98.80;;;;;;5084156;28;20053;-67
2022/04/13 02:30:04;;;;;;;5.40;2.03;;;15.10;98.80;;;;;;5074076;28;20038;-67
2022/04/13 02:32:30;;;;;;;5.43;1.90;;;15.10;98.70;;;;;;5082827;28;20035;-67
2022/04/13 02:34:56;;;;;;;6.55;2.50;;;15.10;98.70;;;;;;5073644;28;20032;-67
2022/04/13 02:37:21;;;;;;;9.50;1.75;;;15.20;98.70;;;;;;5066541;28;20430;-67
2022/04/13 02:39:47;;;;;;;5.32;1.83;;;15.10;98.70;;;;;;5071477;28;20072;-67
2022/04/13 02:42:14;;;;;;;4.65;1.63;;;15.00;98.60;;;;;;5083876;28;20028;-67
2022/04/13 02:44:44;;;;;;;6.22;1.95;;;14.90;98.80;;;;;;5079099;28;20118;-67
2022/04/13 02:47:12;;;;;;;5.68;1.88;;;14.90;99.10;;;;;;5088975;28;20476;-67
2022/04/13 02:49:38;;;;;;;6.00;2.00;;;14.80;99.50;;;;;;5082034;28;20546;-67
2022/04/13 02:52:04;;;;;;;5.50;1.98;;;14.50;99.80;;;;;;5086049;28;20028;-67
2022/04/13 02:54:30;;;;;;;5.18;1.75;;;14.30;99.90;;;;;;5081728;28;20044;-67
2022/04/13 02:56:56;;;;;;;6.32;2.22;;;14.10;99.90;;;;;;5063939;28;20115;-67
2022/04/13 02:59:21;;;;;;;5.07;1.75;;;14.00;99.90;;;;;;5088175;28;20031;-67
2022/04/13 03:01:47;;;;;;;5.55;1.80;;;13.70;99.90;;;;;;5080955;28;20021;-67
2022/04/13 03:04:13;;;;;;;6.82;2.33;;;13.80;99.90;;;;;;5082829;28;20055;-67
2022/04/13 03:06:39;;;;;;;5.40;1.80;;;13.90;99.90;;;;;;5059876;28;20024;-67
2022/04/13 03:09:05;;;;;;;7.55;1.95;;;14.00;99.90;;;;;;5082207;28;20027;-67
2022/04/13 03:11:30;;;;;;;6.80;2.10;;;13.80;99.90;;;;;;5080153;28;20028;-67
2022/04/13 03:13:56;;;;;;;7.75;2.17;;;13.80;99.90;;;;;;5079145;28;20024;-67
2022/04/13 03:16:23;;;;;;;4.90;1.80;;;13.60;99.90;;;;;;5069698;28;20145;-67
2022/04/13 03:18:48;;;;;;;5.57;1.77;;;13.30;99.90;;;;;;5068671;28;20023;-67
2022/04/13 03:21:14;;;;;;;7.00;1.98;;;12.90;99.90;;;;;;5088340;28;20024;-67
2022/04/13 03:23:40;;;;;;;4.53;1.85;;;12.70;99.90;;;;;;5078942;28;20028;-67
2022/04/13 03:26:06;;;;;;;7.75;2.45;;;12.50;99.90;;;;;;5080807;28;20032;-68
2022/04/13 03:28:31;;;;;;;4.95;1.77;;;12.40;99.90;;;;;;5080373;28;20028;-68
2022/04/13 03:30:57;;;;;;;8.18;2.10;;;12.30;99.90;;;;;;5079918;28;20068;-67
2022/04/13 03:33:23;;;;;;;4.90;2.00;;;12.20;99.90;;;;;;5083569;28;20130;-67
2022/04/13 03:35:49;;;;;;;5.18;2.17;;;12.20;99.90;;;;;;5082402;28;20527;-67
2022/04/13 03:38:14;;;;;;;10.00;2.50;;;12.10;99.90;;;;;;5061978;28;20036;-67
2022/04/13 03:40:40;;;;;;;9.00;2.00;;;12.00;99.90;;;;;;5081634;28;20063;-67
2022/04/13 03:43:06;;;;;;;4.80;2.13;;;12.00;99.90;;;;;;5076273;28;20073;-67
2022/04/13 03:45:31;;;;;;;7.05;2.28;;;12.00;99.90;;;;;;5066692;28;20452;-67
2022/04/13 03:47:57;;;;;;;5.70;2.22;;;12.00;99.90;;;;;;5081230;28;20025;-67
2022/04/13 03:50:22;;;;;;;7.15;2.47;;;11.80;99.90;;;;;;5082661;28;20549;-67
2022/04/13 03:52:48;;;;;;;6.13;2.15;;;11.70;99.90;;;;;;5084123;28;20030;-67
2022/04/13 03:55:14;;;;;;;6.75;2.10;;;11.60;99.90;;;;;;5078809;28;20097;-67
2022/04/13 03:57:39;;;;;;;6.75;2.28;;;11.40;99.90;;;;;;5078262;28;20035;-67
2022/04/13 04:00:08;;;;;;;6.72;2.10;;;11.40;99.90;;;;;;5084566;28;20032;-67
2022/04/13 04:02:38;;;;;;;5.93;1.90;;;11.30;99.90;;;;;;5077449;28;20448;-67
2022/04/13 04:05:04;;;;;;;6.40;2.13;;;11.40;99.90;;;;;;5064283;28;20111;-67
2022/04/13 04:07:29;;;;;;;4.97;2.00;;;11.40;99.90;;;;;;5086533;28;20036;-67
2022/04/13 04:09:55;;;;;;;6.70;2.25;;;11.50;99.90;;;;;;5078862;28;20032;-67
2022/04/13 04:12:21;;;;;;;7.85;2.53;;;11.60;99.90;;;;;;5080055;28;20032;-67
2022/04/13 04:14:46;;;;;;;6.68;2.40;;;11.40;99.90;;;;;;5080444;28;20035;-67
2022/04/13 04:17:12;;;;;;;8.38;2.58;;;11.30;99.90;;;;;;5081192;28;20027;-67
2022/04/13 04:19:37;;;;;;;8.07;2.50;;;11.20;99.90;;;;;;5082020;28;20028;-67
2022/04/13 04:22:03;;;;;;;6.80;2.13;;;11.10;99.90;;;;;;5085480;28;20020;-67
2022/04/13 04:24:29;;;;;;;6.13;2.28;;;11.00;99.90;;;;;;5080106;28;20134;-68
2022/04/13 04:26:55;;;;;;;6.53;2.45;;;11.10;99.90;;;;;;5079485;28;20496;-67
2022/04/13 04:29:22;;;;;;;6.18;1.92;;;11.20;99.90;;;;;;5082188;28;20452;-67
2022/04/13 04:31:50;;;;;;;9.18;3.03;;;11.40;99.90;;;;;;5078128;28;20094;-67
2022/04/13 04:34:18;;;;;;;9.18;2.92;;;11.30;99.90;;;;;;5075946;28;20027;-67
2022/04/13 04:36:44;;;;;;;6.72;2.15;;;11.10;99.90;;;;;;5057537;28;20430;-67
2022/04/13 04:39:10;;;;;;;7.10;2.08;;;10.90;99.90;;;;;;5071354;28;20024;-67
2022/04/13 04:41:36;;;;;;;7.72;2.50;;;11.10;99.90;;;;;;5077702;28;20396;-67
2022/04/13 04:44:01;;;;;;;5.68;2.13;;;10.90;99.90;;;;;;5083425;28;20360;-67
2022/04/13 04:46:27;;;;;;;7.47;2.92;;;10.70;99.90;;;;;;5079789;28;20012;-67
2022/04/13 04:48:53;;;;;;;9.27;2.53;;;10.60;99.90;;;;;;5066068;28;20094;-66
2022/04/13 04:51:19;;;;;;;5.50;2.15;;;10.50;99.90;;;;;;5084862;28;20027;-66
2022/04/13 04:53:47;;;;;;;6.85;2.35;;;10.50;99.90;;;;;;5081202;28;20029;-66
2022/04/13 04:56:14;;;;;;;7.72;2.58;;;10.50;99.90;;;;;;5076097;28;20020;-66
2022/04/13 04:58:39;;;;;;;5.95;2.13;;;10.50;99.90;;;;;;5072739;28;20021;-66
2022/04/13 05:01:05;;;;;;;7.15;2.50;;;10.60;99.90;;;;;;5076369;28;20032;-66
2022/04/13 05:03:32;;;;;;;8.48;2.40;;;10.60;99.90;;;;;;5061413;28;20104;-66
2022/04/13 05:05:57;;;;;;;5.22;2.20;;;10.50;99.90;;;;;;5078665;28;20016;-66
2022/04/13 05:08:23;;;;;;;5.22;2.33;;;10.50;99.90;;;;;;5081127;28;20404;-66
2022/04/13 05:10:51;;;;;;;6.88;2.47;;;10.40;99.90;;;;;;5080933;28;20024;-66
2022/04/13 05:13:20;;;;;;;5.53;2.38;;;10.40;99.90;;;;;;5081166;28;20019;-66
2022/04/13 05:15:46;;;;;;;7.30;2.40;;;10.50;99.90;;;;;;5081043;28;20418;-66
2022/04/13 05:18:12;;;;;;;6.07;2.30;;;10.60;99.90;;;;;;5079788;28;20020;-66
2022/04/13 05:20:40;;;;;;;10.48;2.40;;;10.60;99.90;;;;;;5061513;28;20078;-66
2022/04/13 05:23:06;;;;;;;8.10;2.38;;;10.60;99.90;;;;;;5083559;28;20028;-66
2022/04/13 05:25:31;;;;;;;4.20;1.80;;;10.80;99.90;;;;;;5079146;28;20074;-66
2022/04/13 05:27:57;;;;;;;6.25;2.22;;;11.10;99.90;;;;;;5078764;28;20135;-65
2022/04/13 05:30:22;;;;;;;5.47;1.98;;;11.10;99.90;;;;;;5077445;28;20594;-66
2022/04/13 05:32:56;;;;;;;10.73;2.55;;;11.20;99.90;;;;;;5079888;28;20121;-66
2022/04/13 05:35:22;;;;;;;5.47;2.17;;;11.40;99.90;;;;;;5078105;28;20038;-65
2022/04/13 05:37:47;;;;;;;5.20;1.92;;;11.40;99.90;;;;;;5070484;28;20447;-65
2022/04/13 05:40:13;;;;;;;6.00;2.10;;;11.40;99.90;;;;;;5068797;28;20042;-66
2022/04/13 05:42:39;;;;;;;5.90;2.13;;;11.60;99.90;;;;;;5077332;28;20029;-66
2022/04/13 05:45:05;;;;;;;5.90;2.22;;;11.60;99.90;;;;;;5082548;28;20102;-66
2022/04/13 05:47:31;;;;;;;7.32;2.10;;;11.70;99.90;;;;;;5071258;28;20039;-66
2022/04/13 05:49:56;;;;;;;6.95;2.42;;;11.70;99.90;;;;;;5078389;28;20391;-66
2022/04/13 05:52:22;;;;;;;5.13;1.73;;;11.80;99.90;;;;;;5081560;28;20020;-66
2022/04/13 05:54:47;;;;;;;7.40;2.25;;;11.80;99.90;;;;;;5062384;28;20052;-65
2022/04/13 05:57:13;;;;;;;7.05;2.05;;;11.80;99.90;;;;;;5083770;28;20016;-66
2022/04/13 05:59:38;;;;;;;9.27;2.30;;;11.90;99.90;;;;;;5063804;28;20053;-66
2022/04/13 06:02:05;;;;;;;8.05;2.30;;;12.00;99.90;;;;;;5093376;28;20025;-66
2022/04/13 06:04:30;;;;;;;5.82;2.03;;;12.10;99.90;;;;;;5084632;28;20061;-66
2022/04/13 06:06:57;;;;;;;6.30;2.08;;;12.10;99.90;;;;;;5086224;28;20488;-66
2022/04/13 06:09:23;;;;;;;7.57;2.58;;;12.20;99.90;;;;;;5089259;28;20098;-66
2022/04/13 06:11:49;;;;;;;7.00;2.22;;;12.40;99.90;;;;;;5087068;28;20073;-66
2022/04/13 06:14:15;;;;;;;6.43;2.17;;;12.50;99.90;;;;;;5086389;28;20020;-66
2022/04/13 06:16:40;;;;;;;8.30;2.50;;;12.70;99.90;;;;;;5083363;28;20023;-66
2022/04/13 06:19:06;;;;;;;9.43;2.55;;;12.90;99.90;;;;;;5065243;28;20031;-66
2022/04/13 06:21:32;;;;;;;8.45;2.50;;;13.20;99.90;;;;;;5082450;28;20388;-66
2022/04/13 06:23:57;;;;;;;11.82;3.00;;;13.20;99.90;;;;;;5085065;28;20032;-66
2022/04/13 06:26:23;;;;;;;7.18;2.33;;;13.40;99.90;;;;;;5081004;28;20051;-66
2022/04/13 06:28:48;;;;;;;6.60;2.25;;;13.60;99.90;;;;;;5084242;28;20039;-66
2022/04/13 06:31:14;;;;;;;6.47;2.17;;;13.80;99.90;;;;;;5087326;28;20031;-66
2022/04/13 06:33:40;;;;;;;9.23;1.98;;;14.10;99.90;;;;;;5083588;28;20123;-66
2022/04/13 06:36:06;;;;;;;8.27;2.55;;;14.30;99.90;;;;;;5076857;28;20615;-67
2022/04/13 06:38:35;;;;;;;8.10;2.30;;;14.50;99.90;;;;;;5063570;28;20392;-66
2022/04/13 06:41:00;;;;;;;7.50;2.13;;;14.90;99.90;;;;;;5068546;28;20509;-66
2022/04/13 06:43:26;;;;;;;7.07;1.88;;;15.00;99.90;;;;;;5083291;28;20039;-66
2022/04/13 06:45:54;;;;;;;5.97;1.85;;;15.20;99.90;;;;;;5084527;28;20028;-66
2022/04/13 06:48:21;;;;;;;7.47;2.00;;;15.30;99.90;;;;;;5080055;28;20111;-66
2022/04/13 06:50:47;;;;;;;5.78;2.08;;;15.50;99.90;;;;;;5081488;28;20507;-66
2022/04/13 06:53:14;;;;;;;4.68;1.70;;;15.50;99.90;;;;;;5080999;28;20024;-66
2022/04/13 06:55:40;;;;;;;6.78;2.38;;;15.60;99.90;;;;;;5084639;28;20471;-65
2022/04/13 06:58:07;;;;;;;7.75;2.50;;;15.70;99.90;;;;;;5080193;28;20039;-66
2022/04/13 07:00:33;;;;;;;7.45;2.17;;;15.80;99.90;;;;;;5082636;28;20020;-66
2022/04/13 07:02:59;;;;;;;7.30;2.42;;;15.90;99.90;;;;;;5070637;28;20449;-65
2022/04/13 07:05:25;;;;;;;7.57;1.65;;;15.90;99.90;;;;;;5077824;28;20099;-66
2022/04/13 07:07:51;;;;;;;5.60;2.30;;;15.90;99.90;;;;;;5078656;28;20024;-66
2022/04/13 07:10:17;;;;;;;14.52;2.80;;;16.00;99.90;;;;;;5059283;28;20035;-66
2022/04/13 07:12:42;;;;;;;5.78;2.25;;;16.10;99.90;;;;;;5081709;28;20024;-65
2022/04/13 07:15:08;;;;;;;5.78;2.40;;;16.10;99.90;;;;;;5064840;28;20040;-65
2022/04/13 07:17:35;;;;;;;9.50;2.70;;;16.20;99.90;;;;;;5081400;28;20054;-66
2022/04/13 07:20:00;;;;;;;11.10;2.50;;;16.20;99.90;;;;;;5088819;28;20023;-66
2022/04/13 07:22:26;;;;;;;6.30;2.33;;;16.40;99.90;;;;;;5082190;28;20021;-61
2022/04/13 07:24:52;;;;;;;7.03;2.42;;;16.60;99.90;;;;;;5082569;28;20040;-61
2022/04/13 07:27:18;;;;;;;10.82;2.90;;;16.60;99.90;;;;;;5085376;28;20099;-61
2022/04/13 07:29:43;;;;;;;6.05;2.03;;;16.50;99.90;;;;;;5087933;28;20044;-61
2022/04/13 07:32:09;;;;;;;7.18;2.35;;;16.50;99.90;;;;;;5084095;28;20056;-61
2022/04/13 07:34:36;;;;;;;7.82;2.80;;;16.50;99.90;;;;;;5073284;28;20073;-61
2022/04/13 07:37:03;;;;;;;9.13;2.83;;;16.50;99.90;;;;;;5080565;28;20100;-61
2022/04/13 07:39:29;;;;;;;8.60;2.15;;;16.60;99.90;;;;;;5081956;28;20016;-61
2022/04/13 07:41:54;;;;;;;8.80;2.90;;;16.70;99.90;;;;;;5075536;28;20043;-61
2022/04/13 07:44:20;;;;;;;7.90;2.88;;;16.70;99.90;;;;;;5085391;28;20089;-61
2022/04/13 07:46:45;;;;;;;9.48;3.00;;;16.80;99.90;;;;;;5082474;28;20031;-61
2022/04/13 07:49:11;;;;;;;7.95;2.50;;;16.80;99.90;;;;;;5078554;28;20087;-62
2022/04/13 07:51:40;;;;;;;11.27;2.97;;;16.90;99.90;;;;;;5085474;28;20115;-62
2022/04/13 07:54:06;;;;;;;9.83;2.70;;;17.00;99.90;;;;;;5079213;28;20487;-62
2022/04/13 07:56:32;;;;;;;11.23;2.88;;;17.20;99.90;;;;;;5077641;28;20302;-62
2022/04/13 07:58:58;;;;;;;8.98;2.80;;;17.50;99.90;;;;;;5081594;28;20032;-62
2022/04/13 08:01:23;;;;;;;7.63;3.03;;;17.70;99.90;;;;;;5081805;28;20024;-62
2022/04/13 08:03:49;;;;;;;10.05;3.05;;;17.70;99.90;;;;;;5078890;28;20513;-62
2022/04/13 08:06:15;;;;;;;18.75;2.83;;;18.30;99.90;;;;;;5082383;28;20388;-62
2022/04/13 08:08:40;;;;;;;8.10;2.65;;;18.30;99.90;;;;;;5083254;28;20039;-62
2022/04/13 08:11:06;;;;;;;10.18;2.95;;;18.30;99.90;;;;;;5067033;28;20026;-62
2022/04/13 08:13:32;;;;;;;10.20;3.50;;;18.60;99.90;;;;;;5077978;28;20033;-62
2022/04/13 08:15:59;;;;;;;7.32;3.30;;;18.60;99.90;;;;;;5071543;28;20029;-62
2022/04/13 08:18:25;;;;;;;10.35;3.28;;;18.70;99.90;;;;;;5069895;28;20432;-62
2022/04/13 08:20:50;;;;;;;8.88;3.13;;;18.60;99.90;;;;;;5070341;28;20100;-62
2022/04/13 08:23:16;;;;;;;8.68;3.03;;;18.60;99.90;;;;;;5078874;28;20020;-62
2022/04/13 08:25:42;;;;;;;10.65;2.88;;;18.90;99.90;;;;;;5082891;28;20107;-62
2022/04/13 08:28:08;;;;;;;11.55;3.00;;;18.80;99.90;;;;;;5086363;28;20052;-62
2022/04/13 08:30:34;;;;;;;9.20;2.90;;;18.70;99.90;;;;;;5088337;28;20060;-62
2022/04/13 08:32:59;;;;;;;8.70;3.20;;;18.70;99.90;;;;;;5068569;28;20054;-62
2022/04/13 08:35:25;;;;;;;10.77;3.40;;;18.90;99.90;;;;;;5087651;28;20702;-62
2022/04/13 08:37:50;;;;;;;8.95;3.47;;;18.90;99.90;;;;;;5060485;28;20094;-62
2022/04/13 08:40:19;;;;;;;11.63;3.70;;;18.80;99.90;;;;;;5066787;28;20376;-62
2022/04/13 08:42:54;;;;;;;12.80;3.72;;;19.00;99.90;;;;;;5073694;28;20031;-62
2022/04/13 08:45:28;;;;;;;12.40;3.58;;;19.70;99.90;;;;;;5083171;28;20157;-62
2022/04/13 08:47:59;;;;;;;11.10;2.90;;;20.20;99.90;;;;;;5067750;28;20028;-62
2022/04/13 08:50:30;;;;;;;6.75;2.42;;;20.60;99.50;;;;;;5086429;28;20077;-62
2022/04/13 08:53:02;;;;;;;9.60;3.20;;;20.70;98.80;;;;;;5079443;28;20518;-62
2022/04/13 08:55:30;;;;;;;11.50;3.28;;;20.50;99.30;;;;;;5083348;28;20035;-62
2022/04/13 08:58:22;;;;;;;8.93;3.20;;;20.80;99.20;;;;;;5080117;28;20032;-62
2022/04/13 09:00:50;;;;;;;11.93;3.50;;;21.40;98.30;;;;;;5063558;28;20020;-62
2022/04/13 09:03:26;;;;;;;11.20;3.30;;;21.60;97.50;;;;;;5083687;28;20028;-62
2022/04/13 09:05:57;;;;;;;10.05;3.17;;;21.20;97.80;;;;;;5066321;28;20032;-62
2022/04/13 09:08:26;;;;;;;9.90;3.00;;;21.50;97.50;;;;;;5080876;28;20032;-62
2022/04/13 09:10:52;;;;;;;13.83;4.30;;;21.20;97.70;;;;;;5079328;28;20389;-62
2022/04/13 09:13:24;;;;;;;9.30;3.22;;;21.70;97.70;;;;;;5085138;28;20039;-62
2022/04/13 09:15:50;;;;;;;9.70;3.78;;;21.70;97.10;;;;;;5079499;28;20498;-62
2022/04/13 09:18:16;;;;;;;10.02;3.15;;;21.30;97.60;;;;;;5081499;28;20443;-62
2022/04/13 09:20:42;;;;;;;24.50;3.45;;;21.50;97.80;;;;;;5081688;28;20044;-62
2022/04/13 09:23:07;;;;;;;9.57;3.15;;;22.50;96.70;;;;;;5069859;28;20115;-62
2022/04/13 09:25:36;;;;;;;10.63;3.58;;;22.20;96.70;;;;;;5088116;28;20068;-62
2022/04/13 09:28:03;;;;;;;9.95;3.33;;;22.10;97.50;;;;;;5080218;28;20113;-62
2022/04/13 09:30:33;;;;;;;11.68;3.38;;;23.40;95.60;;;;;;5084295;28;20108;-62
2022/04/13 09:33:00;;;;;;;15.95;3.58;;;23.10;94.70;;;;;;5084854;28;20566;-62
2022/04/13 09:35:25;;;;;;;11.30;3.95;;;23.40;94.30;;;;;;5078289;28;20039;-62
2022/04/13 09:37:52;;;;;;;7.63;2.97;;;22.50;95.50;;;;;;5076005;28;20590;-62
2022/04/13 09:40:33;;;;;;;11.70;2.92;;;22.10;96.40;;;;;;5073920;28;20434;-62
2022/04/13 09:43:12;;;;;;;9.18;3.40;;;22.90;95.40;;;;;;5073597;28;20032;-62
2022/04/13 09:45:43;;;;;;;11.73;3.42;;;22.80;95.40;;;;;;5078339;28;20059;-62
2022/04/13 09:48:20;;;;;;;10.32;4.07;;;23.80;94.70;;;;;;5078268;28;20639;-62
2022/04/13 09:50:47;;;;;;;8.13;3.25;;;24.50;93.00;;;;;;5083544;28;20107;-63
2022/04/13 09:53:14;;;;;;;10.65;3.78;;;24.30;93.90;;;;;;5074176;28;20051;-63
2022/04/13 09:56:04;;;;;;;9.18;2.90;;;25.00;92.80;;;;;;5078729;28;20097;-63
2022/04/13 09:58:30;;;;;;;7.60;2.75;;;;;;;;;;5078149;28;20497;-63
2022/04/13 10:01:02;;;;;;;10.80;2.78;;;25.90;99.90;;;;;;5083574;28;20016;-63
2022/04/13 10:03:28;;;;;;;7.20;2.53;;;27.40;90.40;;;;;;5081621;28;20020;-63
2022/04/13 10:05:55;;;;;;;9.30;3.30;;;27.10;89.10;;;;;;5065608;28;20380;-63
2022/04/13 10:08:23;;;;;;;10.00;3.05;;;26.80;88.60;;;;;;5079507;28;20484;-63
2022/04/13 10:10:50;;;;;;;10.88;3.03;;;27.70;87.50;;;;;;5080500;28;20078;-63
2022/04/13 10:13:38;;;;;;;8.07;2.88;;;26.80;88.20;;;;;;5077837;28;20024;-63
2022/04/13 10:16:07;;;;;;;7.45;2.40;;;27.40;87.60;;;;;;5080840;28;20020;-63
2022/04/13 10:18:54;;;;;;;13.77;3.00;;;26.80;86.60;;;;;;5081001;28;20024;-62
2022/04/13 10:21:51;;;;;;;8.43;2.97;;;26.20;89.00;;;;;;5078593;28;20029;-62
2022/04/13 10:24:28;;;;;;;13.43;3.30;;;26.40;89.70;;;;;;5067172;28;20101;-62
2022/04/13 10:27:16;;;;;;;11.45;3.15;;;26.30;87.90;;;;;;5084855;28;20067;-63
2022/04/13 10:29:44;;;;;;;8.55;2.97;;;26.40;88.70;;;;;;5084526;28;20016;-63
2022/04/13 10:32:11;;;;;;;12.73;3.15;;;27.60;86.00;;;;;;5089237;28;20026;-63
2022/04/13 10:34:42;;;;;;;9.10;3.08;;;28.00;85.10;;;;;;5083131;28;20028;-63
2022/04/13 10:37:14;;;;;;;11.38;3.05;;;27.70;83.70;;;;;;5079914;28;20050;-63
2022/04/13 10:39:41;;;;;;;7.70;2.70;;;26.80;84.40;;;;;;5081540;28;20029;-63
2022/04/13 10:42:12;;;;;;;9.15;2.97;;;26.60;85.00;;;;;;5082318;28;20483;-62
2022/04/13 10:44:41;;;;;;;11.32;3.35;;;25.50;86.60;;;;;;5080701;28;20020;-62
2022/04/13 10:47:10;;;;;;;9.32;3.35;;;24.00;89.10;;;;;;5069460;28;20631;-62
2022/04/13 10:49:58;;;;;;;7.38;2.55;;;23.80;90.10;;;;;;5080719;28;20036;-62
2022/04/13 10:52:47;;;;;;;7.78;2.75;;;24.10;90.20;;;;;;5082551;28;20038;-62
2022/04/13 10:55:14;;;;;;;6.65;2.50;;;22.90;90.60;;;;;;5082019;28;20028;-62
2022/04/13 10:57:50;;;;;;;6.60;2.30;;;22.50;91.30;;;;;;5076755;28;20098;-62
2022/04/13 11:00:18;;;;;;;7.07;2.35;;;22.80;91.20;;;;;;5086235;28;20025;-62
2022/04/13 11:02:54;;;;;;;12.02;2.85;;;22.80;91.30;;;;;;5081508;28;20441;-62
2022/04/13 11:05:22;;;;;;;10.75;2.55;;;22.80;91.60;;;;;;5081910;28;20429;-62
2022/04/13 11:08:04;;;;;;;6.63;2.55;;;23.00;90.90;;;;;;5080196;28;20029;-62
2022/04/13 11:10:32;;;;;;;8.90;2.65;;;23.20;90.60;;;;;;5079592;28;20038;-62
2022/04/13 11:12:59;;;;;;;6.70;2.53;;;22.90;91.50;;;;;;5082459;28;20025;-62
2022/04/13 11:16:12;;;;;;;5.93;2.05;;;23.40;91.10;;;;;;5079591;28;20720;-62
2022/04/13 11:18:37;;;;;;;7.50;2.58;;;25.20;89.10;;;;;;5029518;28;20072;-62
2022/04/13 11:21:08;;;;;;;6.90;2.10;;;25.50;87.80;;;;;;5067932;28;20522;-62
2022/04/13 11:24:06;;;;;;;6.28;2.25;;;26.00;87.30;;;;;;5077155;28;20074;-62
2022/04/13 11:26:34;;;;;;;7.13;2.30;;;26.70;83.80;;;;;;5018128;28;20044;-62
2022/04/13 11:29:18;;;;;;;6.18;1.90;;;26.40;86.00;;;;;;5081257;28;20073;-62
2022/04/13 11:32:01;;;;;;;5.63;1.83;;;26.20;84.50;;;;;;5079151;28;20116;-62
2022/04/13 11:34:36;;;;;;;12.70;2.38;;;28.30;83.00;;;;;;5079191;28;20028;-63
2022/04/13 11:37:05;;;;;;;7.32;2.10;;;28.20;80.50;;;;;;5078562;28;20024;-63
2022/04/13 11:39:53;;;;;;;7.88;1.92;;;26.20;84.10;;;;;;5078514;28;20103;-63
2022/04/13 11:42:32;;;;;;;7.72;2.30;;;26.20;84.20;;;;;;5078111;28;20028;-63
2022/04/13 11:45:13;;;;;;;9.20;2.60;;;26.40;83.70;;;;;;5081664;28;20024;-63
2022/04/13 11:47:46;;;;;;;9.32;2.00;;;27.70;81.90;;;;;;5085213;28;20479;-63
2022/04/13 11:50:15;;;;;;;5.07;1.77;;;29.70;79.70;;;;;;5081919;28;20029;-64
2022/04/13 11:52:54;;;;;;;6.32;2.03;;;28.80;78.80;;;;;;5083165;28;20027;-63
2022/04/13 11:55:27;;;;;;;7.93;1.80;;;29.00;78.60;;;;;;5084544;28;20081;-63
2022/04/13 11:58:02;;;;;;;6.32;1.90;;;29.50;77.00;;;;;;5078753;28;20016;-63
2022/04/13 12:00:52;;;;;;;6.93;1.80;;;29.60;76.50;;;;;;5079011;28;20024;-64
2022/04/13 12:03:27;;;;;;;5.57;1.65;;;30.20;75.00;;;;;;5061860;28;20392;-63
2022/04/13 12:05:54;;;;;;;7.22;1.67;;;30.90;73.50;;;;;;5060681;28;20023;-63
2022/04/13 12:08:31;;;;;;;6.60;2.17;;;29.60;73.50;;;;;;5078869;28;20016;-63
2022/04/13 12:11:03;;;;;;;7.70;2.05;;;29.10;74.10;;;;;;5078132;28;20096;-63
2022/04/13 12:13:32;;;;;;;5.85;1.70;;;28.30;75.10;;;;;;5066491;28;20162;-63
2022/04/13 12:16:00;;;;;;;8.70;1.85;;;27.30;77.20;;;;;;5074306;28;20035;-63
2022/04/13 12:18:26;;;;;;;6.00;1.80;;;28.10;75.10;;;;;;5080417;28;20016;-63
2022/04/13 12:20:55;;;;;;;5.82;1.83;;;29.00;74.90;;;;;;5083141;28;20024;-63
2022/04/13 12:23:25;;;;;;;6.25;1.73;;;25.90;78.80;;;;;;5065371;28;20130;-63
2022/04/13 12:25:52;;;;;;;7.85;1.70;;;26.40;79.20;;;;;;5082426;28;20718;-63
2022/04/13 12:28:19;;;;;;;6.25;1.88;;;26.50;77.70;;;;;;5076558;28;20110;-63
2022/04/13 12:31:09;;;;;;;4.82;1.65;;;26.10;79.40;;;;;;5078536;28;20042;-63
2022/04/13 12:33:37;;;;;;;6.15;1.55;;;25.90;79.00;;;;;;5076103;28;20126;-63
2022/04/13 12:36:05;;;;;;;9.15;1.60;;;26.50;80.00;;;;;;5080563;28;20039;-62
2022/04/13 12:38:36;;;;;;;6.00;1.60;;;26.60;78.80;;;;;;5066558;28;20024;-62
2022/04/13 12:41:06;;;;;;;7.22;1.75;;;26.30;79.70;;;;;;5088456;28;20034;-63
2022/04/13 12:43:33;;;;;;;9.80;1.83;;;26.50;79.20;;;;;;5085344;28;20024;-62
2022/04/13 12:46:11;;;;;;;5.35;1.60;;;26.20;80.10;;;;;;5087690;28;20042;-62
2022/04/13 12:48:37;;;;;;;7.60;1.70;;;25.70;80.30;;;;;;5076902;28;20034;-62
2022/04/13 12:51:05;;;;;;;7.20;1.83;;;25.70;80.60;;;;;;5081593;28;20020;-62